Hartville, Missouri
Current Conditions -  °F | °C
As of 10:33 AM on Friday 31 Oct 2014 (Local Time) from KTBN Reporting Station
Broken Clouds Broken Clouds  
Wind Chill: 36°   Ceiling: 3000
Heat Index: 45°   Visibility: 10mi
Dew Point: 32°   Wind: 21mph
Humidity: 61%   Direction: 330°NNW
Pressure: 30.32"   Gusts: 29mph
Location:  37.25°N, 92.51°W
Report Text: KTBN 311533Z AUTO 33018G25KT 10SM BKN030 07/00 A3032 RMK AO2
Loading
Personal Weather Stations






























Interactive Weather Map
Tropical Storm Tracking
New forecast layout! Learn more

10-Day Weather Forecast

Advertisements
Track Severe Weather on mobile